sensor_id;sensor_type;location;lat;lon;timestamp;P1;durP1;ratioP1;P2;durP2;ratioP2
35290;SDS011;21411;50.024;19.220;2023-04-30T00:00:44;28.60;;;24.70;;
35290;SDS011;21411;50.024;19.220;2023-04-30T00:03:31;29.20;;;23.30;;
35290;SDS011;21411;50.024;19.220;2023-04-30T00:05:58;29.00;;;23.20;;
35290;SDS011;21411;50.024;19.220;2023-04-30T00:08:24;28.20;;;22.60;;
35290;SDS011;21411;50.024;19.220;2023-04-30T00:10:51;29.50;;;24.10;;
35290;SDS011;21411;50.024;19.220;2023-04-30T00:13:18;31.00;;;24.00;;
35290;SDS011;21411;50.024;19.220;2023-04-30T00:15:44;32.00;;;25.40;;
35290;SDS011;21411;50.024;19.220;2023-04-30T00:18:11;32.50;;;25.70;;
35290;SDS011;21411;50.024;19.220;2023-04-30T00:20:37;29.10;;;22.90;;
35290;SDS011;21411;50.024;19.220;2023-04-30T00:23:04;25.30;;;20.10;;
35290;SDS011;21411;50.024;19.220;2023-04-30T00:25:30;23.60;;;18.30;;
35290;SDS011;21411;50.024;19.220;2023-04-30T00:27:57;25.30;;;18.30;;
35290;SDS011;21411;50.024;19.220;2023-04-30T00:30:23;22.00;;;16.40;;
35290;SDS011;21411;50.024;19.220;2023-04-30T00:32:50;22.20;;;16.10;;
35290;SDS011;21411;50.024;19.220;2023-04-30T00:35:16;19.50;;;16.70;;
35290;SDS011;21411;50.024;19.220;2023-04-30T00:37:43;18.50;;;15.60;;
35290;SDS011;21411;50.024;19.220;2023-04-30T00:40:09;22.30;;;16.30;;
35290;SDS011;21411;50.024;19.220;2023-04-30T00:42:36;21.20;;;16.50;;
35290;SDS011;21411;50.024;19.220;2023-04-30T00:45:03;21.30;;;17.00;;
35290;SDS011;21411;50.024;19.220;2023-04-30T00:47:30;20.90;;;16.50;;
35290;SDS011;21411;50.024;19.220;2023-04-30T00:49:57;25.80;;;18.80;;
35290;SDS011;21411;50.024;19.220;2023-04-30T00:52:24;23.20;;;18.70;;
35290;SDS011;21411;50.024;19.220;2023-04-30T00:54:50;21.50;;;18.10;;
35290;SDS011;21411;50.024;19.220;2023-04-30T00:57:19;27.20;;;22.30;;
35290;SDS011;21411;50.024;19.220;2023-04-30T00:59:45;23.80;;;20.70;;
35290;SDS011;21411;50.024;19.220;2023-04-30T01:02:12;27.00;;;22.00;;
35290;SDS011;21411;50.024;19.220;2023-04-30T01:04:39;28.10;;;24.30;;
35290;SDS011;21411;50.024;19.220;2023-04-30T01:07:06;26.90;;;22.70;;
35290;SDS011;21411;50.024;19.220;2023-04-30T01:09:32;33.10;;;26.20;;
35290;SDS011;21411;50.024;19.220;2023-04-30T01:20:01;33.70;;;27.20;;
35290;SDS011;21411;50.024;19.220;2023-04-30T01:22:35;37.00;;;28.70;;
35290;SDS011;21411;50.024;19.220;2023-04-30T01:25:19;36.90;;;31.10;;
35290;SDS011;21411;50.024;19.220;2023-04-30T01:28:01;42.10;;;32.30;;
35290;SDS011;21411;50.024;19.220;2023-04-30T01:30:31;42.40;;;31.00;;
35290;SDS011;21411;50.024;19.220;2023-04-30T01:32:59;38.20;;;31.60;;
35290;SDS011;21411;50.024;19.220;2023-04-30T01:35:34;39.20;;;31.60;;
35290;SDS011;21411;50.024;19.220;2023-04-30T01:46:39;44.40;;;32.20;;
35290;SDS011;21411;50.024;19.220;2023-04-30T01:49:18;46.10;;;33.80;;
35290;SDS011;21411;50.024;19.220;2023-04-30T01:52:34;39.30;;;31.00;;
35290;SDS011;21411;50.024;19.220;2023-04-30T01:55:13;37.10;;;28.50;;
35290;SDS011;21411;50.024;19.220;2023-04-30T01:57:57;36.80;;;27.10;;
35290;SDS011;21411;50.024;19.220;2023-04-30T02:00:34;37.00;;;26.50;;
35290;SDS011;21411;50.024;19.220;2023-04-30T02:03:01;31.70;;;24.70;;
35290;SDS011;21411;50.024;19.220;2023-04-30T02:05:28;31.90;;;25.50;;
35290;SDS011;21411;50.024;19.220;2023-04-30T02:07:54;31.10;;;23.60;;
35290;SDS011;21411;50.024;19.220;2023-04-30T02:10:22;28.40;;;22.70;;
35290;SDS011;21411;50.024;19.220;2023-04-30T02:12:51;25.70;;;21.60;;
35290;SDS011;21411;50.024;19.220;2023-04-30T02:15:18;28.60;;;22.10;;
35290;SDS011;21411;50.024;19.220;2023-04-30T02:17:44;30.00;;;21.20;;
35290;SDS011;21411;50.024;19.220;2023-04-30T02:20:11;24.70;;;19.90;;
35290;SDS011;21411;50.024;19.220;2023-04-30T02:22:38;26.10;;;19.60;;
35290;SDS011;21411;50.024;19.220;2023-04-30T02:25:04;23.60;;;19.20;;
35290;SDS011;21411;50.024;19.220;2023-04-30T02:27:32;22.60;;;17.90;;
35290;SDS011;21411;50.024;19.220;2023-04-30T02:29:59;24.90;;;19.40;;
35290;SDS011;21411;50.024;19.220;2023-04-30T02:32:26;23.40;;;18.40;;
35290;SDS011;21411;50.024;19.220;2023-04-30T02:34:52;24.60;;;18.80;;
35290;SDS011;21411;50.024;19.220;2023-04-30T02:37:19;21.70;;;17.40;;
35290;SDS011;21411;50.024;19.220;2023-04-30T02:39:45;23.00;;;18.50;;
35290;SDS011;21411;50.024;19.220;2023-04-30T02:42:12;23.30;;;16.60;;
35290;SDS011;21411;50.024;19.220;2023-04-30T02:44:38;23.20;;;17.60;;
35290;SDS011;21411;50.024;19.220;2023-04-30T02:47:07;19.60;;;16.00;;
35290;SDS011;21411;50.024;19.220;2023-04-30T02:49:34;20.50;;;16.70;;
35290;SDS011;21411;50.024;19.220;2023-04-30T02:52:01;16.90;;;14.50;;
35290;SDS011;21411;50.024;19.220;2023-04-30T02:54:27;17.20;;;13.90;;
35290;SDS011;21411;50.024;19.220;2023-04-30T02:56:54;15.60;;;12.70;;
35290;SDS011;21411;50.024;19.220;2023-04-30T02:59:20;14.20;;;12.00;;
35290;SDS011;21411;50.024;19.220;2023-04-30T03:01:47;12.10;;;10.80;;
35290;SDS011;21411;50.024;19.220;2023-04-30T03:04:13;12.10;;;10.90;;
35290;SDS011;21411;50.024;19.220;2023-04-30T03:06:40;13.70;;;10.20;;
35290;SDS011;21411;50.024;19.220;2023-04-30T03:09:06;14.30;;;9.40;;
35290;SDS011;21411;50.024;19.220;2023-04-30T03:11:33;10.60;;;9.50;;
35290;SDS011;21411;50.024;19.220;2023-04-30T03:14:02;8.60;;;7.80;;
35290;SDS011;21411;50.024;19.220;2023-04-30T03:16:30;10.50;;;8.50;;
35290;SDS011;21411;50.024;19.220;2023-04-30T03:18:56;10.70;;;8.80;;
35290;SDS011;21411;50.024;19.220;2023-04-30T03:21:23;10.40;;;8.60;;
35290;SDS011;21411;50.024;19.220;2023-04-30T03:23:49;10.70;;;9.10;;
35290;SDS011;21411;50.024;19.220;2023-04-30T03:26:16;10.20;;;8.80;;
35290;SDS011;21411;50.024;19.220;2023-04-30T03:28:43;9.30;;;8.20;;
35290;SDS011;21411;50.024;19.220;2023-04-30T03:31:09;8.80;;;7.30;;
35290;SDS011;21411;50.024;19.220;2023-04-30T03:33:36;9.30;;;7.50;;
35290;SDS011;21411;50.024;19.220;2023-04-30T03:36:02;8.30;;;7.20;;
35290;SDS011;21411;50.024;19.220;2023-04-30T03:38:29;10.10;;;9.10;;
35290;SDS011;21411;50.024;19.220;2023-04-30T03:40:56;10.20;;;9.20;;
35290;SDS011;21411;50.024;19.220;2023-04-30T03:43:22;9.30;;;8.40;;
35290;SDS011;21411;50.024;19.220;2023-04-30T03:45:49;9.40;;;8.60;;
35290;SDS011;21411;50.024;19.220;2023-04-30T03:48:16;10.50;;;9.50;;
35290;SDS011;21411;50.024;19.220;2023-04-30T03:50:43;13.10;;;11.80;;
35290;SDS011;21411;50.024;19.220;2023-04-30T03:53:10;16.20;;;14.70;;
35290;SDS011;21411;50.024;19.220;2023-04-30T03:55:36;18.20;;;16.60;;
35290;SDS011;21411;50.024;19.220;2023-04-30T03:58:03;17.20;;;15.60;;
35290;SDS011;21411;50.024;19.220;2023-04-30T04:00:30;19.20;;;17.30;;
35290;SDS011;21411;50.024;19.220;2023-04-30T04:02:57;17.70;;;16.10;;
35290;SDS011;21411;50.024;19.220;2023-04-30T04:05:24;20.70;;;18.70;;
35290;SDS011;21411;50.024;19.220;2023-04-30T04:07:51;21.50;;;19.20;;
35290;SDS011;21411;50.024;19.220;2023-04-30T04:10:18;23.40;;;20.70;;
35290;SDS011;21411;50.024;19.220;2023-04-30T04:12:44;27.00;;;24.30;;
35290;SDS011;21411;50.024;19.220;2023-04-30T04:15:11;25.00;;;22.50;;
35290;SDS011;21411;50.024;19.220;2023-04-30T04:17:38;23.80;;;21.30;;
35290;SDS011;21411;50.024;19.220;2023-04-30T04:20:05;23.90;;;21.50;;
35290;SDS011;21411;50.024;19.220;2023-04-30T04:22:32;24.50;;;21.00;;
35290;SDS011;21411;50.024;19.220;2023-04-30T04:24:59;23.30;;;21.00;;
35290;SDS011;21411;50.024;19.220;2023-04-30T04:27:25;25.00;;;20.30;;
35290;SDS011;21411;50.024;19.220;2023-04-30T04:29:52;22.30;;;18.90;;
35290;SDS011;21411;50.024;19.220;2023-04-30T04:32:19;24.80;;;19.40;;
35290;SDS011;21411;50.024;19.220;2023-04-30T04:34:47;21.90;;;19.50;;
35290;SDS011;21411;50.024;19.220;2023-04-30T04:37:14;22.50;;;19.70;;
35290;SDS011;21411;50.024;19.220;2023-04-30T04:39:42;22.30;;;20.00;;
35290;SDS011;21411;50.024;19.220;2023-04-30T04:42:10;24.90;;;19.70;;
35290;SDS011;21411;50.024;19.220;2023-04-30T04:44:37;24.50;;;20.20;;
35290;SDS011;21411;50.024;19.220;2023-04-30T04:47:03;22.10;;;19.20;;
35290;SDS011;21411;50.024;19.220;2023-04-30T04:49:31;23.30;;;20.30;;
35290;SDS011;21411;50.024;19.220;2023-04-30T04:51:58;24.70;;;22.10;;
35290;SDS011;21411;50.024;19.220;2023-04-30T04:54:24;25.10;;;22.20;;
35290;SDS011;21411;50.024;19.220;2023-04-30T04:56:51;26.10;;;23.20;;
35290;SDS011;21411;50.024;19.220;2023-04-30T04:59:17;30.90;;;26.30;;
35290;SDS011;21411;50.024;19.220;2023-04-30T05:01:44;29.90;;;24.70;;
35290;SDS011;21411;50.024;19.220;2023-04-30T05:04:10;28.70;;;25.70;;
35290;SDS011;21411;50.024;19.220;2023-04-30T05:06:38;28.20;;;24.50;;
35290;SDS011;21411;50.024;19.220;2023-04-30T05:09:06;29.40;;;25.80;;
35290;SDS011;21411;50.024;19.220;2023-04-30T05:11:34;27.80;;;24.80;;
35290;SDS011;21411;50.024;19.220;2023-04-30T05:14:01;29.50;;;24.60;;
35290;SDS011;21411;50.024;19.220;2023-04-30T05:16:28;25.80;;;21.80;;
35290;SDS011;21411;50.024;19.220;2023-04-30T05:18:55;28.20;;;22.70;;
35290;SDS011;21411;50.024;19.220;2023-04-30T05:21:21;26.70;;;22.80;;
35290;SDS011;21411;50.024;19.220;2023-04-30T05:23:48;27.10;;;24.10;;
35290;SDS011;21411;50.024;19.220;2023-04-30T05:26:14;27.90;;;24.10;;
35290;SDS011;21411;50.024;19.220;2023-04-30T05:28:41;28.40;;;23.10;;
35290;SDS011;21411;50.024;19.220;2023-04-30T05:31:08;23.90;;;21.10;;
35290;SDS011;21411;50.024;19.220;2023-04-30T05:33:34;24.50;;;21.80;;
35290;SDS011;21411;50.024;19.220;2023-04-30T05:36:02;23.40;;;21.00;;
35290;SDS011;21411;50.024;19.220;2023-04-30T05:38:30;26.20;;;21.50;;
35290;SDS011;21411;50.024;19.220;2023-04-30T05:40:57;24.10;;;21.30;;
35290;SDS011;21411;50.024;19.220;2023-04-30T05:43:23;25.10;;;20.20;;
35290;SDS011;21411;50.024;19.220;2023-04-30T05:45:50;24.40;;;21.10;;
35290;SDS011;21411;50.024;19.220;2023-04-30T05:48:17;23.70;;;20.90;;
35290;SDS011;21411;50.024;19.220;2023-04-30T05:50:43;23.60;;;21.10;;
35290;SDS011;21411;50.024;19.220;2023-04-30T05:53:09;21.10;;;18.90;;
35290;SDS011;21411;50.024;19.220;2023-04-30T05:55:36;19.40;;;17.30;;
35290;SDS011;21411;50.024;19.220;2023-04-30T05:58:02;19.80;;;17.80;;
35290;SDS011;21411;50.024;19.220;2023-04-30T06:00:29;20.10;;;17.80;;
35290;SDS011;21411;50.024;19.220;2023-04-30T06:02:56;20.30;;;17.30;;
35290;SDS011;21411;50.024;19.220;2023-04-30T06:05:22;19.40;;;17.30;;
35290;SDS011;21411;50.024;19.220;2023-04-30T06:07:49;19.00;;;17.10;;
35290;SDS011;21411;50.024;19.220;2023-04-30T06:10:15;20.40;;;17.30;;
35290;SDS011;21411;50.024;19.220;2023-04-30T06:12:42;18.60;;;16.60;;
35290;SDS011;21411;50.024;19.220;2023-04-30T06:15:08;19.50;;;17.30;;
35290;SDS011;21411;50.024;19.220;2023-04-30T06:17:35;19.00;;;16.80;;
35290;SDS011;21411;50.024;19.220;2023-04-30T06:20:02;19.60;;;16.50;;
35290;SDS011;21411;50.024;19.220;2023-04-30T06:22:32;18.80;;;16.90;;
35290;SDS011;21411;50.024;19.220;2023-04-30T06:24:59;18.50;;;16.60;;
35290;SDS011;21411;50.024;19.220;2023-04-30T06:27:26;19.10;;;17.10;;
35290;SDS011;21411;50.024;19.220;2023-04-30T06:29:57;19.40;;;17.10;;
35290;SDS011;21411;50.024;19.220;2023-04-30T06:32:26;17.70;;;15.70;;
35290;SDS011;21411;50.024;19.220;2023-04-30T06:34:52;16.80;;;15.10;;
35290;SDS011;21411;50.024;19.220;2023-04-30T06:37:19;17.00;;;15.10;;
35290;SDS011;21411;50.024;19.220;2023-04-30T06:39:46;20.10;;;15.50;;
35290;SDS011;21411;50.024;19.220;2023-04-30T06:42:12;17.80;;;16.00;;
35290;SDS011;21411;50.024;19.220;2023-04-30T06:44:39;18.10;;;16.00;;
35290;SDS011;21411;50.024;19.220;2023-04-30T06:47:05;16.60;;;15.00;;
35290;SDS011;21411;50.024;19.220;2023-04-30T06:49:32;16.30;;;14.70;;
35290;SDS011;21411;50.024;19.220;2023-04-30T06:51:58;16.50;;;14.90;;
35290;SDS011;21411;50.024;19.220;2023-04-30T06:54:26;17.80;;;15.70;;
35290;SDS011;21411;50.024;19.220;2023-04-30T06:56:53;17.40;;;15.20;;
35290;SDS011;21411;50.024;19.220;2023-04-30T06:59:19;17.20;;;14.80;;
35290;SDS011;21411;50.024;19.220;2023-04-30T07:01:46;15.40;;;13.90;;
35290;SDS011;21411;50.024;19.220;2023-04-30T07:04:12;16.20;;;13.40;;
35290;SDS011;21411;50.024;19.220;2023-04-30T07:06:38;14.80;;;13.30;;
35290;SDS011;21411;50.024;19.220;2023-04-30T07:09:05;16.60;;;13.30;;
35290;SDS011;21411;50.024;19.220;2023-04-30T07:11:32;15.20;;;12.50;;
35290;SDS011;21411;50.024;19.220;2023-04-30T07:13:58;15.70;;;14.00;;
35290;SDS011;21411;50.024;19.220;2023-04-30T07:16:25;13.90;;;12.50;;
35290;SDS011;21411;50.024;19.220;2023-04-30T07:18:53;14.70;;;13.10;;
35290;SDS011;21411;50.024;19.220;2023-04-30T07:21:19;12.10;;;10.90;;
35290;SDS011;21411;50.024;19.220;2023-04-30T07:23:46;12.40;;;10.60;;
35290;SDS011;21411;50.024;19.220;2023-04-30T07:26:17;14.60;;;11.40;;
35290;SDS011;21411;50.024;19.220;2023-04-30T07:31:12;13.30;;;11.60;;
35290;SDS011;21411;50.024;19.220;2023-04-30T07:33:39;11.90;;;10.70;;
35290;SDS011;21411;50.024;19.220;2023-04-30T07:36:05;12.80;;;11.50;;
35290;SDS011;21411;50.024;19.220;2023-04-30T07:38:32;13.50;;;12.00;;
35290;SDS011;21411;50.024;19.220;2023-04-30T07:40:58;11.60;;;10.40;;
35290;SDS011;21411;50.024;19.220;2023-04-30T07:43:25;11.10;;;9.70;;
35290;SDS011;21411;50.024;19.220;2023-04-30T07:45:51;10.70;;;9.70;;
35290;SDS011;21411;50.024;19.220;2023-04-30T07:48:19;9.50;;;8.50;;
35290;SDS011;21411;50.024;19.220;2023-04-30T07:50:47;9.80;;;8.80;;
35290;SDS011;21411;50.024;19.220;2023-04-30T07:53:14;13.40;;;8.90;;
35290;SDS011;21411;50.024;19.220;2023-04-30T07:55:40;9.60;;;8.20;;
35290;SDS011;21411;50.024;19.220;2023-04-30T07:58:07;9.70;;;8.60;;
35290;SDS011;21411;50.024;19.220;2023-04-30T08:00:33;10.40;;;9.40;;
35290;SDS011;21411;50.024;19.220;2023-04-30T08:03:00;10.70;;;9.60;;
35290;SDS011;21411;50.024;19.220;2023-04-30T08:05:26;8.80;;;7.90;;
35290;SDS011;21411;50.024;19.220;2023-04-30T08:07:53;9.10;;;7.40;;
35290;SDS011;21411;50.024;19.220;2023-04-30T08:10:19;9.80;;;8.10;;
35290;SDS011;21411;50.024;19.220;2023-04-30T08:12:46;8.30;;;7.10;;
35290;SDS011;21411;50.024;19.220;2023-04-30T08:15:13;8.50;;;7.60;;
35290;SDS011;21411;50.024;19.220;2023-04-30T08:17:39;8.60;;;6.90;;
35290;SDS011;21411;50.024;19.220;2023-04-30T08:20:06;8.50;;;7.20;;
35290;SDS011;21411;50.024;19.220;2023-04-30T08:22:33;8.00;;;7.20;;
35290;SDS011;21411;50.024;19.220;2023-04-30T08:25:00;7.60;;;7.00;;
35290;SDS011;21411;50.024;19.220;2023-04-30T08:27:27;8.00;;;7.20;;
35290;SDS011;21411;50.024;19.220;2023-04-30T08:29:55;8.50;;;6.90;;
35290;SDS011;21411;50.024;19.220;2023-04-30T08:32:22;7.10;;;6.00;;
35290;SDS011;21411;50.024;19.220;2023-04-30T08:34:48;10.50;;;7.30;;
35290;SDS011;21411;50.024;19.220;2023-04-30T08:37:15;7.40;;;6.70;;
35290;SDS011;21411;50.024;19.220;2023-04-30T08:39:41;8.50;;;7.00;;
35290;SDS011;21411;50.024;19.220;2023-04-30T08:42:08;7.20;;;6.40;;
35290;SDS011;21411;50.024;19.220;2023-04-30T08:44:39;8.50;;;7.20;;
35290;SDS011;21411;50.024;19.220;2023-04-30T08:47:09;7.50;;;6.50;;
35290;SDS011;21411;50.024;19.220;2023-04-30T08:49:39;9.10;;;6.70;;
35290;SDS011;21411;50.024;19.220;2023-04-30T08:52:08;7.20;;;5.50;;
35290;SDS011;21411;50.024;19.220;2023-04-30T08:54:35;7.00;;;6.40;;
35290;SDS011;21411;50.024;19.220;2023-04-30T08:57:02;5.80;;;5.20;;
35290;SDS011;21411;50.024;19.220;2023-04-30T08:59:29;5.70;;;5.10;;
35290;SDS011;21411;50.024;19.220;2023-04-30T09:01:56;6.60;;;5.50;;
35290;SDS011;21411;50.024;19.220;2023-04-30T09:04:22;5.40;;;4.80;;
35290;SDS011;21411;50.024;19.220;2023-04-30T09:06:51;6.00;;;5.40;;
35290;SDS011;21411;50.024;19.220;2023-04-30T09:09:18;5.50;;;5.00;;
35290;SDS011;21411;50.024;19.220;2023-04-30T09:11:45;5.90;;;5.30;;
35290;SDS011;21411;50.024;19.220;2023-04-30T09:14:11;6.20;;;4.60;;
35290;SDS011;21411;50.024;19.220;2023-04-30T09:16:47;4.90;;;4.40;;
35290;SDS011;21411;50.024;19.220;2023-04-30T09:19:22;4.90;;;4.40;;
35290;SDS011;21411;50.024;19.220;2023-04-30T09:21:48;5.10;;;4.60;;
35290;SDS011;21411;50.024;19.220;2023-04-30T09:24:15;4.30;;;3.90;;
35290;SDS011;21411;50.024;19.220;2023-04-30T09:26:42;5.20;;;4.70;;
35290;SDS011;21411;50.024;19.220;2023-04-30T09:29:11;5.60;;;4.60;;
35290;SDS011;21411;50.024;19.220;2023-04-30T09:31:44;5.60;;;5.10;;
35290;SDS011;21411;50.024;19.220;2023-04-30T09:34:12;5.50;;;3.90;;
35290;SDS011;21411;50.024;19.220;2023-04-30T09:36:51;6.10;;;4.50;;
35290;SDS011;21411;50.024;19.220;2023-04-30T09:39:21;6.10;;;4.10;;
35290;SDS011;21411;50.024;19.220;2023-04-30T09:41:49;5.30;;;4.40;;
35290;SDS011;21411;50.024;19.220;2023-04-30T09:44:26;4.60;;;4.20;;
35290;SDS011;21411;50.024;19.220;2023-04-30T09:46:58;5.20;;;4.00;;
35290;SDS011;21411;50.024;19.220;2023-04-30T09:49:25;4.90;;;4.10;;
35290;SDS011;21411;50.024;19.220;2023-04-30T09:51:53;4.90;;;4.30;;
35290;SDS011;21411;50.024;19.220;2023-04-30T09:54:25;4.60;;;4.20;;
35290;SDS011;21411;50.024;19.220;2023-04-30T09:56:56;7.60;;;4.50;;
35290;SDS011;21411;50.024;19.220;2023-04-30T09:59:27;4.60;;;4.00;;
35290;SDS011;21411;50.024;19.220;2023-04-30T10:01:59;4.50;;;3.90;;
35290;SDS011;21411;50.024;19.220;2023-04-30T10:04:38;3.80;;;3.50;;
35290;SDS011;21411;50.024;19.220;2023-04-30T10:07:14;5.30;;;3.70;;
35290;SDS011;21411;50.024;19.220;2023-04-30T10:09:58;5.20;;;3.60;;
35290;SDS011;21411;50.024;19.220;2023-04-30T10:12:34;5.30;;;3.80;;
35290;SDS011;21411;50.024;19.220;2023-04-30T10:15:09;7.20;;;4.50;;
35290;SDS011;21411;50.024;19.220;2023-04-30T10:17:40;3.70;;;3.40;;
35290;SDS011;21411;50.024;19.220;2023-04-30T10:20:08;3.90;;;3.30;;
35290;SDS011;21411;50.024;19.220;2023-04-30T10:22:35;4.70;;;3.20;;
35290;SDS011;21411;50.024;19.220;2023-04-30T10:25:02;4.80;;;4.10;;
35290;SDS011;21411;50.024;19.220;2023-04-30T10:27:29;4.60;;;3.80;;
35290;SDS011;21411;50.024;19.220;2023-04-30T10:29:55;4.80;;;3.40;;
35290;SDS011;21411;50.024;19.220;2023-04-30T10:32:22;4.50;;;3.70;;
35290;SDS011;21411;50.024;19.220;2023-04-30T10:34:58;3.90;;;3.40;;
35290;SDS011;21411;50.024;19.220;2023-04-30T10:37:33;4.50;;;3.50;;
35290;SDS011;21411;50.024;19.220;2023-04-30T10:40:10;3.90;;;3.00;;
35290;SDS011;21411;50.024;19.220;2023-04-30T10:42:37;3.90;;;3.00;;
35290;SDS011;21411;50.024;19.220;2023-04-30T10:45:10;3.80;;;2.90;;
35290;SDS011;21411;50.024;19.220;2023-04-30T10:47:42;4.00;;;3.20;;
35290;SDS011;21411;50.024;19.220;2023-04-30T10:50:12;6.20;;;3.10;;
35290;SDS011;21411;50.024;19.220;2023-04-30T10:52:39;5.60;;;3.30;;
35290;SDS011;21411;50.024;19.220;2023-04-30T10:55:09;3.50;;;3.20;;
35290;SDS011;21411;50.024;19.220;2023-04-30T10:57:42;4.80;;;2.80;;
35290;SDS011;21411;50.024;19.220;2023-04-30T11:02:40;4.80;;;3.40;;
35290;SDS011;21411;50.024;19.220;2023-04-30T11:05:20;3.40;;;3.10;;
35290;SDS011;21411;50.024;19.220;2023-04-30T11:08:00;4.20;;;3.80;;
35290;SDS011;21411;50.024;19.220;2023-04-30T11:10:27;3.80;;;2.70;;
35290;SDS011;21411;50.024;19.220;2023-04-30T11:12:57;4.00;;;3.60;;
35290;SDS011;21411;50.024;19.220;2023-04-30T11:15:24;4.50;;;3.80;;
35290;SDS011;21411;50.024;19.220;2023-04-30T11:17:55;4.30;;;3.20;;
35290;SDS011;21411;50.024;19.220;2023-04-30T11:20:24;4.90;;;3.10;;
35290;SDS011;21411;50.024;19.220;2023-04-30T11:23:10;4.60;;;3.00;;
35290;SDS011;21411;50.024;19.220;2023-04-30T11:25:43;4.10;;;3.00;;
35290;SDS011;21411;50.024;19.220;2023-04-30T11:28:22;3.80;;;3.00;;
35290;SDS011;21411;50.024;19.220;2023-04-30T11:30:54;5.70;;;3.10;;
35290;SDS011;21411;50.024;19.220;2023-04-30T11:33:23;3.50;;;3.10;;
35290;SDS011;21411;50.024;19.220;2023-04-30T11:35:51;4.10;;;3.10;;
35290;SDS011;21411;50.024;19.220;2023-04-30T11:38:19;5.20;;;3.60;;
35290;SDS011;21411;50.024;19.220;2023-04-30T11:40:47;5.90;;;3.00;;
35290;SDS011;21411;50.024;19.220;2023-04-30T11:43:24;3.40;;;2.90;;
35290;SDS011;21411;50.024;19.220;2023-04-30T11:45:58;6.50;;;3.40;;
35290;SDS011;21411;50.024;19.220;2023-04-30T11:48:33;3.10;;;2.80;;
35290;SDS011;21411;50.024;19.220;2023-04-30T11:51:13;3.60;;;3.30;;
35290;SDS011;21411;50.024;19.220;2023-04-30T11:53:40;6.00;;;3.30;;
35290;SDS011;21411;50.024;19.220;2023-04-30T11:56:07;3.50;;;2.70;;
35290;SDS011;21411;50.024;19.220;2023-04-30T11:58:34;4.20;;;3.30;;
35290;SDS011;21411;50.024;19.220;2023-04-30T12:01:04;3.70;;;3.00;;
35290;SDS011;21411;50.024;19.220;2023-04-30T12:03:48;5.40;;;2.70;;
35290;SDS011;21411;50.024;19.220;2023-04-30T12:06:26;3.90;;;2.40;;
35290;SDS011;21411;50.024;19.220;2023-04-30T12:08:54;5.00;;;2.90;;
35290;SDS011;21411;50.024;19.220;2023-04-30T12:11:22;4.30;;;2.40;;
35290;SDS011;21411;50.024;19.220;2023-04-30T12:13:54;4.20;;;2.70;;
35290;SDS011;21411;50.024;19.220;2023-04-30T12:16:22;3.90;;;2.80;;
35290;SDS011;21411;50.024;19.220;2023-04-30T12:18:50;3.60;;;3.20;;
35290;SDS011;21411;50.024;19.220;2023-04-30T12:21:17;11.50;;;8.80;;
35290;SDS011;21411;50.024;19.220;2023-04-30T12:23:44;4.00;;;3.10;;
35290;SDS011;21411;50.024;19.220;2023-04-30T12:26:11;4.20;;;3.50;;
35290;SDS011;21411;50.024;19.220;2023-04-30T12:28:37;3.90;;;3.30;;
35290;SDS011;21411;50.024;19.220;2023-04-30T12:31:06;5.30;;;2.60;;
35290;SDS011;21411;50.024;19.220;2023-04-30T12:33:33;4.00;;;2.70;;
35290;SDS011;21411;50.024;19.220;2023-04-30T12:36:01;4.70;;;2.90;;
35290;SDS011;21411;50.024;19.220;2023-04-30T12:38:28;4.00;;;3.00;;
35290;SDS011;21411;50.024;19.220;2023-04-30T12:40:55;4.20;;;2.80;;
35290;SDS011;21411;50.024;19.220;2023-04-30T12:43:21;5.40;;;2.80;;
35290;SDS011;21411;50.024;19.220;2023-04-30T12:45:49;5.20;;;2.90;;
35290;SDS011;21411;50.024;19.220;2023-04-30T12:48:19;3.40;;;2.60;;
35290;SDS011;21411;50.024;19.220;2023-04-30T12:50:54;4.40;;;3.10;;
35290;SDS011;21411;50.024;19.220;2023-04-30T12:53:23;3.50;;;2.70;;
35290;SDS011;21411;50.024;19.220;2023-04-30T12:56:05;5.80;;;2.90;;
35290;SDS011;21411;50.024;19.220;2023-04-30T12:58:42;4.90;;;3.10;;
35290;SDS011;21411;50.024;19.220;2023-04-30T13:01:20;4.20;;;2.60;;
35290;SDS011;21411;50.024;19.220;2023-04-30T13:03:50;3.60;;;3.10;;
35290;SDS011;21411;50.024;19.220;2023-04-30T13:06:17;4.80;;;3.10;;
35290;SDS011;21411;50.024;19.220;2023-04-30T13:08:44;3.30;;;2.80;;
35290;SDS011;21411;50.024;19.220;2023-04-30T13:11:10;3.70;;;3.20;;
35290;SDS011;21411;50.024;19.220;2023-04-30T13:13:37;5.30;;;3.90;;
35290;SDS011;21411;50.024;19.220;2023-04-30T13:16:03;5.20;;;2.80;;
35290;SDS011;21411;50.024;19.220;2023-04-30T13:18:31;4.80;;;3.00;;
35290;SDS011;21411;50.024;19.220;2023-04-30T13:20:58;4.10;;;2.80;;
35290;SDS011;21411;50.024;19.220;2023-04-30T13:23:24;4.70;;;2.70;;
35290;SDS011;21411;50.024;19.220;2023-04-30T13:25:51;4.80;;;3.00;;
35290;SDS011;21411;50.024;19.220;2023-04-30T13:28:17;2.60;;;2.00;;
35290;SDS011;21411;50.024;19.220;2023-04-30T13:30:44;3.00;;;2.50;;
35290;SDS011;21411;50.024;19.220;2023-04-30T13:33:10;5.70;;;2.60;;
35290;SDS011;21411;50.024;19.220;2023-04-30T13:35:37;4.90;;;3.00;;
35290;SDS011;21411;50.024;19.220;2023-04-30T13:38:04;3.30;;;2.90;;
35290;SDS011;21411;50.024;19.220;2023-04-30T13:40:31;2.90;;;2.40;;
35290;SDS011;21411;50.024;19.220;2023-04-30T13:42:58;3.70;;;2.40;;
35290;SDS011;21411;50.024;19.220;2023-04-30T13:45:24;4.60;;;2.40;;
35290;SDS011;21411;50.024;19.220;2023-04-30T13:47:51;3.80;;;2.40;;
35290;SDS011;21411;50.024;19.220;2023-04-30T13:50:18;3.50;;;2.50;;
35290;SDS011;21411;50.024;19.220;2023-04-30T13:52:44;3.60;;;2.30;;
35290;SDS011;21411;50.024;19.220;2023-04-30T13:55:11;4.60;;;2.10;;
35290;SDS011;21411;50.024;19.220;2023-04-30T13:57:39;3.90;;;2.20;;
35290;SDS011;21411;50.024;19.220;2023-04-30T14:00:06;5.20;;;2.70;;
35290;SDS011;21411;50.024;19.220;2023-04-30T14:02:34;4.00;;;2.10;;
35290;SDS011;21411;50.024;19.220;2023-04-30T14:05:01;4.10;;;2.40;;
35290;SDS011;21411;50.024;19.220;2023-04-30T14:07:30;3.60;;;2.50;;
35290;SDS011;21411;50.024;19.220;2023-04-30T14:09:57;3.80;;;2.50;;
35290;SDS011;21411;50.024;19.220;2023-04-30T14:12:23;3.20;;;2.40;;
35290;SDS011;21411;50.024;19.220;2023-04-30T14:14:50;4.20;;;2.30;;
35290;SDS011;21411;50.024;19.220;2023-04-30T14:17:16;3.30;;;2.70;;
35290;SDS011;21411;50.024;19.220;2023-04-30T14:19:43;7.00;;;4.50;;
35290;SDS011;21411;50.024;19.220;2023-04-30T14:22:09;5.10;;;3.40;;
35290;SDS011;21411;50.024;19.220;2023-04-30T14:24:36;5.10;;;3.50;;
35290;SDS011;21411;50.024;19.220;2023-04-30T14:27:03;6.20;;;3.80;;
35290;SDS011;21411;50.024;19.220;2023-04-30T14:29:29;4.70;;;3.30;;
35290;SDS011;21411;50.024;19.220;2023-04-30T14:31:56;4.60;;;2.90;;
35290;SDS011;21411;50.024;19.220;2023-04-30T14:34:23;4.30;;;2.40;;
35290;SDS011;21411;50.024;19.220;2023-04-30T14:36:49;5.10;;;2.50;;
35290;SDS011;21411;50.024;19.220;2023-04-30T14:39:16;5.20;;;2.50;;
35290;SDS011;21411;50.024;19.220;2023-04-30T14:41:43;4.10;;;2.50;;
35290;SDS011;21411;50.024;19.220;2023-04-30T14:44:09;5.40;;;2.40;;
35290;SDS011;21411;50.024;19.220;2023-04-30T14:46:36;5.00;;;2.50;;
35290;SDS011;21411;50.024;19.220;2023-04-30T14:49:03;4.70;;;2.60;;